Brohman, MI (49312)

7:23 AM EST en Enero 27, 2015 (GMT -0500)
Hawkins Paradise | Change Station
CLOSE
Current Station
Estación meteorológica personal
Location: Reed City, MI
Altura: 1073 ft
Estaciones meteorológicas cercanas

Alt 1073 ft 43.81 °N, 85.66 °W | Updated 20 seconds ago

Parcialmente nublado
Parcialmente nublado
10.9 ° F
Sensación térmica 11 ° F
N
0.0
Viento Variable Viento desde Este
Gusts 0.0 mph

Hoy
Alta -- | Baja -- ° F
--% Posibilidad de precipitaciones
Ayer
Alta -- | Baja -- ° F
Precip. -- pul
8:05 AM 5:47 PM
Cuarto creciente, 53% visible
Presión 30.07 pul
Visibilidad 10.0 Millas
Nubes Nubes dispersas 6500 ft
Nubes dispersas 12000 ft
Vientos helados 11 ° F
Punto de rocío 6 ° F
Humedad 81%
Precipitaciones 0.00 pul
Espesor de la nieve No disponible.
UV 0.0 de una escala de 12
Polen .10 de una escala de 12
Calidad del aire No disponible.
Flu Activity No disponible.
METAR KRQB 271214Z AUTO 00000KT 10SM SCT065 SCT120 M09/M11 A3007 RMK AO2 T10921115

More Conditions Fewer Conditions

Presión 30.07 pul
Visibilidad 10.0 Millas
Nubes Nubes dispersas 6500 ft
Nubes dispersas 12000 ft
Vientos helados 11 ° F
Punto de rocío 6 ° F
Humedad 81%
Precipitaciones 0.00 pul
Espesor de la nieve No disponible.
UV 0.0 de una escala de 12
Polen .10 de una escala de 12
Calidad del aire No disponible.
Flu Activity No disponible.
METAR KRQB 271214Z AUTO 00000KT 10SM SCT065 SCT120 M09/M11 A3007 RMK AO2 T10921115

More Conditions Fewer Conditions

10-Day Weather Forecast

Almanac

Astronomía

Jan. 27, 2015 Salida Puesta
Hora real
Crepúsculo civil
Crepúsculo náutico
Crepúsculo astronómico
Luna
Horas de luz
Horas de luz
Tomorrow will be .
, % of the Moon is Illuminated

Extremos de hoy

Máximos del estado Bajos del estado

Community

WunderPhotos

Upload Photos

1,790,579 ¡fotos cargadas!

WunderBlogs® & News

Nearby

Calidad del aire

  Calidad del aire Índice AQ Contaminante
Not available.

Grosos de nieve

Estación Profundido Altura

Actividad de terremotos

Ciudad Distance Mag. Tiempo y dato
Magnitud mínima muestra es 2,5.

Temperaturas de aguas costeras

Lugar Temperatura

Estaciones meteorológicas cercanas